sensor_id;sensor_type;location;lat;lon;timestamp;P1;durP1;ratioP1;P2;durP2;ratioP2
20935;SDS011;10627;54.514;18.532;2022-12-16T00:03:58;68.07;;;27.53;;
20935;SDS011;10627;54.514;18.532;2022-12-16T00:08:59;77.00;;;27.63;;
20935;SDS011;10627;54.514;18.532;2022-12-16T00:14:00;71.97;;;26.43;;
20935;SDS011;10627;54.514;18.532;2022-12-16T00:19:01;78.27;;;28.50;;
20935;SDS011;10627;54.514;18.532;2022-12-16T00:24:01;73.63;;;28.90;;
20935;SDS011;10627;54.514;18.532;2022-12-16T00:29:02;77.37;;;28.13;;
20935;SDS011;10627;54.514;18.532;2022-12-16T00:34:04;64.77;;;27.77;;
20935;SDS011;10627;54.514;18.532;2022-12-16T00:39:05;75.50;;;27.77;;
20935;SDS011;10627;54.514;18.532;2022-12-16T00:44:05;71.33;;;28.67;;
20935;SDS011;10627;54.514;18.532;2022-12-16T00:49:06;71.77;;;26.57;;
20935;SDS011;10627;54.514;18.532;2022-12-16T00:54:06;76.37;;;23.70;;
20935;SDS011;10627;54.514;18.532;2022-12-16T00:59:07;78.77;;;27.73;;
20935;SDS011;10627;54.514;18.532;2022-12-16T01:04:07;77.93;;;29.33;;
20935;SDS011;10627;54.514;18.532;2022-12-16T01:09:08;72.60;;;28.40;;
20935;SDS011;10627;54.514;18.532;2022-12-16T01:14:08;72.23;;;27.00;;
20935;SDS011;10627;54.514;18.532;2022-12-16T01:19:09;73.23;;;28.27;;
20935;SDS011;10627;54.514;18.532;2022-12-16T01:24:10;71.27;;;26.00;;
20935;SDS011;10627;54.514;18.532;2022-12-16T01:29:10;69.27;;;26.67;;
20935;SDS011;10627;54.514;18.532;2022-12-16T01:34:11;67.80;;;26.37;;
20935;SDS011;10627;54.514;18.532;2022-12-16T01:39:12;71.50;;;26.57;;
20935;SDS011;10627;54.514;18.532;2022-12-16T01:44:19;67.50;;;25.17;;
20935;SDS011;10627;54.514;18.532;2022-12-16T01:49:33;70.00;;;25.97;;
20935;SDS011;10627;54.514;18.532;2022-12-16T01:54:37;72.50;;;26.20;;
20935;SDS011;10627;54.514;18.532;2022-12-16T01:59:39;76.30;;;27.13;;
20935;SDS011;10627;54.514;18.532;2022-12-16T02:04:40;75.57;;;27.03;;
20935;SDS011;10627;54.514;18.532;2022-12-16T02:10:00;76.27;;;28.00;;
20935;SDS011;10627;54.514;18.532;2022-12-16T02:15:13;76.37;;;27.03;;
20935;SDS011;10627;54.514;18.532;2022-12-16T02:30:38;66.63;;;26.80;;
20935;SDS011;10627;54.514;18.532;2022-12-16T02:46:32;77.80;;;27.90;;
20935;SDS011;10627;54.514;18.532;2022-12-16T02:51:37;75.80;;;27.57;;
20935;SDS011;10627;54.514;18.532;2022-12-16T03:01:56;72.80;;;27.83;;
20935;SDS011;10627;54.514;18.532;2022-12-16T03:06:59;86.33;;;29.07;;
20935;SDS011;10627;54.514;18.532;2022-12-16T03:12:00;80.00;;;29.67;;
20935;SDS011;10627;54.514;18.532;2022-12-16T03:17:03;83.33;;;30.07;;
20935;SDS011;10627;54.514;18.532;2022-12-16T03:22:23;83.43;;;28.93;;
20935;SDS011;10627;54.514;18.532;2022-12-16T03:33:13;83.23;;;30.93;;
20935;SDS011;10627;54.514;18.532;2022-12-16T03:38:15;79.17;;;28.97;;
20935;SDS011;10627;54.514;18.532;2022-12-16T03:43:16;87.07;;;31.33;;
20935;SDS011;10627;54.514;18.532;2022-12-16T03:48:21;84.13;;;28.97;;
20935;SDS011;10627;54.514;18.532;2022-12-16T03:53:21;85.57;;;31.13;;
20935;SDS011;10627;54.514;18.532;2022-12-16T03:58:25;87.60;;;30.63;;
20935;SDS011;10627;54.514;18.532;2022-12-16T04:03:26;89.60;;;30.73;;
20935;SDS011;10627;54.514;18.532;2022-12-16T04:08:27;71.10;;;28.13;;
20935;SDS011;10627;54.514;18.532;2022-12-16T04:13:28;83.67;;;28.97;;
20935;SDS011;10627;54.514;18.532;2022-12-16T04:18:47;80.43;;;30.00;;
20935;SDS011;10627;54.514;18.532;2022-12-16T04:24:07;84.27;;;30.73;;
20935;SDS011;10627;54.514;18.532;2022-12-16T04:29:18;96.70;;;37.63;;
20935;SDS011;10627;54.514;18.532;2022-12-16T04:34:20;85.50;;;28.80;;
20935;SDS011;10627;54.514;18.532;2022-12-16T04:39:28;86.97;;;30.70;;
20935;SDS011;10627;54.514;18.532;2022-12-16T04:44:52;79.47;;;29.80;;
20935;SDS011;10627;54.514;18.532;2022-12-16T04:50:11;84.13;;;31.80;;
20935;SDS011;10627;54.514;18.532;2022-12-16T04:55:30;84.77;;;32.43;;
20935;SDS011;10627;54.514;18.532;2022-12-16T05:00:49;104.37;;;37.07;;
20935;SDS011;10627;54.514;18.532;2022-12-16T05:06:08;92.40;;;33.00;;
20935;SDS011;10627;54.514;18.532;2022-12-16T05:11:27;87.47;;;33.40;;
20935;SDS011;10627;54.514;18.532;2022-12-16T05:16:46;98.63;;;33.03;;
20935;SDS011;10627;54.514;18.532;2022-12-16T05:22:05;92.47;;;31.17;;
20935;SDS011;10627;54.514;18.532;2022-12-16T05:27:24;92.07;;;32.43;;
20935;SDS011;10627;54.514;18.532;2022-12-16T05:32:47;88.80;;;32.90;;
20935;SDS011;10627;54.514;18.532;2022-12-16T05:38:06;86.30;;;31.80;;
20935;SDS011;10627;54.514;18.532;2022-12-16T05:43:25;82.03;;;29.60;;
20935;SDS011;10627;54.514;18.532;2022-12-16T05:48:45;92.37;;;31.13;;
20935;SDS011;10627;54.514;18.532;2022-12-16T05:54:04;91.87;;;32.00;;
20935;SDS011;10627;54.514;18.532;2022-12-16T05:59:24;87.20;;;32.27;;
20935;SDS011;10627;54.514;18.532;2022-12-16T06:04:43;87.50;;;32.00;;
20935;SDS011;10627;54.514;18.532;2022-12-16T06:10:02;89.50;;;31.73;;
20935;SDS011;10627;54.514;18.532;2022-12-16T06:15:28;92.43;;;31.60;;
20935;SDS011;10627;54.514;18.532;2022-12-16T06:20:48;88.20;;;28.37;;
20935;SDS011;10627;54.514;18.532;2022-12-16T06:26:07;87.20;;;30.23;;
20935;SDS011;10627;54.514;18.532;2022-12-16T06:31:26;97.57;;;33.20;;
20935;SDS011;10627;54.514;18.532;2022-12-16T06:36:45;100.67;;;31.27;;
20935;SDS011;10627;54.514;18.532;2022-12-16T06:42:04;94.10;;;32.13;;
20935;SDS011;10627;54.514;18.532;2022-12-16T06:47:23;103.53;;;35.83;;
20935;SDS011;10627;54.514;18.532;2022-12-16T06:52:43;104.20;;;34.03;;
20935;SDS011;10627;54.514;18.532;2022-12-16T06:58:02;96.73;;;32.70;;
20935;SDS011;10627;54.514;18.532;2022-12-16T07:03:21;96.43;;;34.43;;
20935;SDS011;10627;54.514;18.532;2022-12-16T07:08:41;103.60;;;33.80;;
20935;SDS011;10627;54.514;18.532;2022-12-16T07:14:00;109.10;;;34.97;;
20935;SDS011;10627;54.514;18.532;2022-12-16T07:19:19;91.23;;;32.40;;
20935;SDS011;10627;54.514;18.532;2022-12-16T07:24:38;101.90;;;31.40;;
20935;SDS011;10627;54.514;18.532;2022-12-16T07:29:57;101.00;;;35.17;;
20935;SDS011;10627;54.514;18.532;2022-12-16T07:35:16;101.77;;;34.70;;
20935;SDS011;10627;54.514;18.532;2022-12-16T07:40:35;106.00;;;35.23;;
20935;SDS011;10627;54.514;18.532;2022-12-16T07:45:54;109.93;;;32.17;;
20935;SDS011;10627;54.514;18.532;2022-12-16T07:51:13;114.57;;;34.40;;
20935;SDS011;10627;54.514;18.532;2022-12-16T07:56:33;104.33;;;34.27;;
20935;SDS011;10627;54.514;18.532;2022-12-16T08:01:51;99.67;;;31.57;;
20935;SDS011;10627;54.514;18.532;2022-12-16T08:07:10;109.13;;;33.33;;
20935;SDS011;10627;54.514;18.532;2022-12-16T08:12:30;100.47;;;32.00;;
20935;SDS011;10627;54.514;18.532;2022-12-16T08:17:49;98.37;;;32.13;;
20935;SDS011;10627;54.514;18.532;2022-12-16T08:23:09;97.43;;;31.20;;
20935;SDS011;10627;54.514;18.532;2022-12-16T08:28:27;89.87;;;30.43;;
20935;SDS011;10627;54.514;18.532;2022-12-16T08:33:47;96.00;;;32.33;;
20935;SDS011;10627;54.514;18.532;2022-12-16T08:39:06;98.37;;;33.87;;
20935;SDS011;10627;54.514;18.532;2022-12-16T08:44:25;97.20;;;32.20;;
20935;SDS011;10627;54.514;18.532;2022-12-16T08:49:44;99.50;;;32.57;;
20935;SDS011;10627;54.514;18.532;2022-12-16T08:55:04;97.43;;;34.00;;
20935;SDS011;10627;54.514;18.532;2022-12-16T09:00:23;101.33;;;33.43;;
20935;SDS011;10627;54.514;18.532;2022-12-16T09:05:42;90.70;;;32.00;;
20935;SDS011;10627;54.514;18.532;2022-12-16T09:11:02;100.40;;;32.80;;
20935;SDS011;10627;54.514;18.532;2022-12-16T09:16:21;100.80;;;31.93;;
20935;SDS011;10627;54.514;18.532;2022-12-16T09:21:40;93.43;;;31.47;;
20935;SDS011;10627;54.514;18.532;2022-12-16T09:26:59;84.03;;;30.30;;
20935;SDS011;10627;54.514;18.532;2022-12-16T09:32:19;91.60;;;30.53;;
20935;SDS011;10627;54.514;18.532;2022-12-16T09:37:43;101.27;;;31.97;;
20935;SDS011;10627;54.514;18.532;2022-12-16T09:43:24;89.83;;;30.70;;
20935;SDS011;10627;54.514;18.532;2022-12-16T09:54:25;97.90;;;31.37;;
20935;SDS011;10627;54.514;18.532;2022-12-16T09:59:47;95.77;;;30.93;;
20935;SDS011;10627;54.514;18.532;2022-12-16T10:05:14;92.00;;;31.23;;
20935;SDS011;10627;54.514;18.532;2022-12-16T10:10:42;91.47;;;30.97;;
20935;SDS011;10627;54.514;18.532;2022-12-16T10:16:13;91.70;;;31.57;;
20935;SDS011;10627;54.514;18.532;2022-12-16T10:21:49;91.90;;;31.90;;
20935;SDS011;10627;54.514;18.532;2022-12-16T10:27:14;108.07;;;33.30;;
20935;SDS011;10627;54.514;18.532;2022-12-16T10:32:40;96.53;;;31.87;;
20935;SDS011;10627;54.514;18.532;2022-12-16T10:38:00;94.90;;;33.20;;
20935;SDS011;10627;54.514;18.532;2022-12-16T10:43:21;106.57;;;33.73;;
20935;SDS011;10627;54.514;18.532;2022-12-16T10:48:45;104.40;;;33.80;;
20935;SDS011;10627;54.514;18.532;2022-12-16T10:59:39;103.73;;;34.20;;
20935;SDS011;10627;54.514;18.532;2022-12-16T11:04:59;105.07;;;32.87;;
20935;SDS011;10627;54.514;18.532;2022-12-16T11:10:22;113.60;;;36.73;;
20935;SDS011;10627;54.514;18.532;2022-12-16T11:15:41;104.43;;;32.70;;
20935;SDS011;10627;54.514;18.532;2022-12-16T11:21:20;87.23;;;31.43;;
20935;SDS011;10627;54.514;18.532;2022-12-16T11:26:40;94.43;;;33.93;;
20935;SDS011;10627;54.514;18.532;2022-12-16T11:37:29;114.10;;;42.92;;
20935;SDS011;10627;54.514;18.532;2022-12-16T11:42:49;99.53;;;34.47;;
20935;SDS011;10627;54.514;18.532;2022-12-16T11:53:39;95.70;;;34.53;;
20935;SDS011;10627;54.514;18.532;2022-12-16T11:59:02;94.47;;;35.50;;
20935;SDS011;10627;54.514;18.532;2022-12-16T12:04:23;109.73;;;36.33;;
20935;SDS011;10627;54.514;18.532;2022-12-16T12:09:46;104.60;;;37.43;;
20935;SDS011;10627;54.514;18.532;2022-12-16T12:26:12;139.03;;;54.03;;
20935;SDS011;10627;54.514;18.532;2022-12-16T12:42:44;109.67;;;40.57;;
20935;SDS011;10627;54.514;18.532;2022-12-16T12:53:30;101.57;;;37.63;;
20935;SDS011;10627;54.514;18.532;2022-12-16T12:58:54;101.63;;;37.40;;
20935;SDS011;10627;54.514;18.532;2022-12-16T13:04:18;95.17;;;35.40;;
20935;SDS011;10627;54.514;18.532;2022-12-16T13:09:37;104.37;;;38.07;;
20935;SDS011;10627;54.514;18.532;2022-12-16T13:15:01;116.37;;;38.80;;
20935;SDS011;10627;54.514;18.532;2022-12-16T13:25:50;85.20;;;32.50;;
20935;SDS011;10627;54.514;18.532;2022-12-16T13:31:10;80.93;;;32.20;;
20935;SDS011;10627;54.514;18.532;2022-12-16T13:36:32;84.73;;;31.97;;
20935;SDS011;10627;54.514;18.532;2022-12-16T13:41:57;91.73;;;34.97;;
20935;SDS011;10627;54.514;18.532;2022-12-16T13:52:55;96.83;;;37.17;;
20935;SDS011;10627;54.514;18.532;2022-12-16T13:58:18;110.10;;;40.37;;
20935;SDS011;10627;54.514;18.532;2022-12-16T14:03:41;85.90;;;32.47;;
20935;SDS011;10627;54.514;18.532;2022-12-16T14:09:01;104.70;;;44.20;;
20935;SDS011;10627;54.514;18.532;2022-12-16T14:14:43;104.03;;;39.60;;
20935;SDS011;10627;54.514;18.532;2022-12-16T14:20:13;100.53;;;36.87;;
20935;SDS011;10627;54.514;18.532;2022-12-16T14:25:33;102.07;;;38.83;;
20935;SDS011;10627;54.514;18.532;2022-12-16T14:31:05;101.10;;;36.63;;
20935;SDS011;10627;54.514;18.532;2022-12-16T14:36:36;105.83;;;39.93;;
20935;SDS011;10627;54.514;18.532;2022-12-16T14:41:55;140.57;;;48.23;;
20935;SDS011;10627;54.514;18.532;2022-12-16T14:47:15;114.33;;;41.57;;
20935;SDS011;10627;54.514;18.532;2022-12-16T14:52:34;103.50;;;39.87;;
20935;SDS011;10627;54.514;18.532;2022-12-16T15:03:37;108.33;;;42.20;;
20935;SDS011;10627;54.514;18.532;2022-12-16T15:09:00;106.43;;;39.23;;
20935;SDS011;10627;54.514;18.532;2022-12-16T15:14:22;89.80;;;36.10;;
20935;SDS011;10627;54.514;18.532;2022-12-16T15:19:56;81.10;;;31.03;;
20935;SDS011;10627;54.514;18.532;2022-12-16T15:25:17;86.53;;;32.77;;
20935;SDS011;10627;54.514;18.532;2022-12-16T15:30:40;87.10;;;34.83;;
20935;SDS011;10627;54.514;18.532;2022-12-16T15:36:00;92.43;;;34.57;;
20935;SDS011;10627;54.514;18.532;2022-12-16T15:41:23;72.10;;;27.20;;
20935;SDS011;10627;54.514;18.532;2022-12-16T15:46:46;75.87;;;28.23;;
20935;SDS011;10627;54.514;18.532;2022-12-16T15:52:22;87.43;;;33.77;;
20935;SDS011;10627;54.514;18.532;2022-12-16T15:57:53;94.50;;;35.00;;
20935;SDS011;10627;54.514;18.532;2022-12-16T16:03:23;93.93;;;35.60;;
20935;SDS011;10627;54.514;18.532;2022-12-16T16:08:42;52.23;;;20.70;;
20935;SDS011;10627;54.514;18.532;2022-12-16T16:14:12;52.83;;;21.17;;
20935;SDS011;10627;54.514;18.532;2022-12-16T16:19:51;53.67;;;20.20;;
20935;SDS011;10627;54.514;18.532;2022-12-16T16:25:10;51.67;;;20.77;;
20935;SDS011;10627;54.514;18.532;2022-12-16T16:30:29;52.33;;;20.47;;
20935;SDS011;10627;54.514;18.532;2022-12-16T16:35:48;52.17;;;20.17;;
20935;SDS011;10627;54.514;18.532;2022-12-16T16:41:12;46.07;;;18.87;;
20935;SDS011;10627;54.514;18.532;2022-12-16T16:46:41;54.30;;;21.27;;
20935;SDS011;10627;54.514;18.532;2022-12-16T16:52:01;50.67;;;21.37;;
20935;SDS011;10627;54.514;18.532;2022-12-16T16:57:20;52.00;;;19.40;;
20935;SDS011;10627;54.514;18.532;2022-12-16T17:02:39;54.93;;;19.23;;
20935;SDS011;10627;54.514;18.532;2022-12-16T17:07:58;55.90;;;19.40;;
20935;SDS011;10627;54.514;18.532;2022-12-16T17:13:17;41.30;;;18.60;;
20935;SDS011;10627;54.514;18.532;2022-12-16T17:18:37;58.50;;;21.33;;
20935;SDS011;10627;54.514;18.532;2022-12-16T17:23:56;53.27;;;19.40;;
20935;SDS011;10627;54.514;18.532;2022-12-16T17:29:20;49.43;;;18.67;;
20935;SDS011;10627;54.514;18.532;2022-12-16T17:34:39;49.37;;;18.77;;
20935;SDS011;10627;54.514;18.532;2022-12-16T17:39:58;46.80;;;18.93;;
20935;SDS011;10627;54.514;18.532;2022-12-16T17:45:17;46.00;;;17.20;;
20935;SDS011;10627;54.514;18.532;2022-12-16T17:50:37;44.50;;;18.43;;
20935;SDS011;10627;54.514;18.532;2022-12-16T17:56:01;50.07;;;18.97;;
20935;SDS011;10627;54.514;18.532;2022-12-16T18:01:21;43.00;;;17.93;;
20935;SDS011;10627;54.514;18.532;2022-12-16T18:06:40;48.57;;;18.80;;
20935;SDS011;10627;54.514;18.532;2022-12-16T18:11:58;50.43;;;18.73;;
20935;SDS011;10627;54.514;18.532;2022-12-16T18:17:18;45.00;;;19.37;;
20935;SDS011;10627;54.514;18.532;2022-12-16T18:22:37;47.07;;;19.23;;
20935;SDS011;10627;54.514;18.532;2022-12-16T18:27:56;43.47;;;18.17;;
20935;SDS011;10627;54.514;18.532;2022-12-16T18:33:15;42.07;;;17.17;;
20935;SDS011;10627;54.514;18.532;2022-12-16T18:38:34;44.77;;;16.23;;
20935;SDS011;10627;54.514;18.532;2022-12-16T18:43:54;43.00;;;15.83;;
20935;SDS011;10627;54.514;18.532;2022-12-16T18:49:13;44.60;;;17.87;;
20935;SDS011;10627;54.514;18.532;2022-12-16T18:54:32;44.97;;;15.93;;
20935;SDS011;10627;54.514;18.532;2022-12-16T18:59:51;39.80;;;15.90;;
20935;SDS011;10627;54.514;18.532;2022-12-16T19:05:10;37.50;;;15.77;;
20935;SDS011;10627;54.514;18.532;2022-12-16T19:10:29;38.00;;;16.37;;
20935;SDS011;10627;54.514;18.532;2022-12-16T19:15:54;35.00;;;15.43;;
20935;SDS011;10627;54.514;18.532;2022-12-16T19:21:14;38.47;;;14.20;;
20935;SDS011;10627;54.514;18.532;2022-12-16T19:26:33;32.43;;;14.20;;
20935;SDS011;10627;54.514;18.532;2022-12-16T19:31:52;39.27;;;14.97;;
20935;SDS011;10627;54.514;18.532;2022-12-16T19:37:11;33.53;;;14.77;;
20935;SDS011;10627;54.514;18.532;2022-12-16T19:42:30;34.63;;;15.27;;
20935;SDS011;10627;54.514;18.532;2022-12-16T19:47:49;32.33;;;14.30;;
20935;SDS011;10627;54.514;18.532;2022-12-16T19:53:08;34.50;;;13.93;;
20935;SDS011;10627;54.514;18.532;2022-12-16T19:58:27;51.77;;;20.43;;
20935;SDS011;10627;54.514;18.532;2022-12-16T20:03:48;113.97;;;40.77;;
20935;SDS011;10627;54.514;18.532;2022-12-16T20:09:07;131.83;;;48.33;;
20935;SDS011;10627;54.514;18.532;2022-12-16T20:14:26;128.13;;;46.63;;
20935;SDS011;10627;54.514;18.532;2022-12-16T20:19:46;101.47;;;38.67;;
20935;SDS011;10627;54.514;18.532;2022-12-16T20:25:24;99.83;;;38.10;;
20935;SDS011;10627;54.514;18.532;2022-12-16T20:30:44;84.63;;;33.20;;
20935;SDS011;10627;54.514;18.532;2022-12-16T20:36:04;92.80;;;36.70;;
20935;SDS011;10627;54.514;18.532;2022-12-16T20:41:23;89.60;;;33.70;;
20935;SDS011;10627;54.514;18.532;2022-12-16T20:46:42;69.30;;;25.47;;
20935;SDS011;10627;54.514;18.532;2022-12-16T20:52:01;105.93;;;37.43;;
20935;SDS011;10627;54.514;18.532;2022-12-16T20:57:21;102.87;;;37.63;;
20935;SDS011;10627;54.514;18.532;2022-12-16T21:02:40;50.83;;;22.13;;
20935;SDS011;10627;54.514;18.532;2022-12-16T21:08:00;58.93;;;21.57;;
20935;SDS011;10627;54.514;18.532;2022-12-16T21:13:20;77.70;;;29.23;;
20935;SDS011;10627;54.514;18.532;2022-12-16T21:18:39;81.43;;;30.93;;
20935;SDS011;10627;54.514;18.532;2022-12-16T21:23:58;80.60;;;31.33;;
20935;SDS011;10627;54.514;18.532;2022-12-16T21:29:17;73.70;;;27.33;;
20935;SDS011;10627;54.514;18.532;2022-12-16T21:34:37;75.27;;;29.50;;
20935;SDS011;10627;54.514;18.532;2022-12-16T21:39:56;57.17;;;22.07;;
20935;SDS011;10627;54.514;18.532;2022-12-16T21:45:15;60.50;;;25.87;;
20935;SDS011;10627;54.514;18.532;2022-12-16T21:50:34;73.73;;;28.80;;
20935;SDS011;10627;54.514;18.532;2022-12-16T21:55:54;76.00;;;27.97;;
20935;SDS011;10627;54.514;18.532;2022-12-16T22:14:09;91.53;;;33.90;;
20935;SDS011;10627;54.514;18.532;2022-12-16T22:20:34;91.57;;;32.10;;
20935;SDS011;10627;54.514;18.532;2022-12-16T22:31:25;103.60;;;37.93;;
20935;SDS011;10627;54.514;18.532;2022-12-16T22:42:01;87.67;;;31.67;;
20935;SDS011;10627;54.514;18.532;2022-12-16T22:47:20;74.67;;;28.50;;
20935;SDS011;10627;54.514;18.532;2022-12-16T22:52:39;95.17;;;33.23;;
20935;SDS011;10627;54.514;18.532;2022-12-16T22:58:04;80.27;;;30.93;;
20935;SDS011;10627;54.514;18.532;2022-12-16T23:03:23;59.80;;;23.73;;
20935;SDS011;10627;54.514;18.532;2022-12-16T23:08:43;50.67;;;21.00;;
20935;SDS011;10627;54.514;18.532;2022-12-16T23:14:03;69.20;;;25.43;;
20935;SDS011;10627;54.514;18.532;2022-12-16T23:19:22;97.47;;;35.03;;
20935;SDS011;10627;54.514;18.532;2022-12-16T23:24:41;64.10;;;24.47;;
20935;SDS011;10627;54.514;18.532;2022-12-16T23:30:00;107.70;;;36.77;;
20935;SDS011;10627;54.514;18.532;2022-12-16T23:35:20;87.40;;;32.87;;
20935;SDS011;10627;54.514;18.532;2022-12-16T23:40:41;85.10;;;31.47;;
20935;SDS011;10627;54.514;18.532;2022-12-16T23:46:26;80.40;;;31.20;;
20935;SDS011;10627;54.514;18.532;2022-12-16T23:51:45;74.50;;;28.57;;
20935;SDS011;10627;54.514;18.532;2022-12-16T23:57:05;71.53;;;27.13;;
